Time;durP1;ratioP1;P1;durP2;ratioP2;P2;SDS_P1;SDS_P2;PMS_P1;PMS_P2;Temp;Humidity;BMP_temperature;BMP_pressure;BME280_temperature;BME280_humidity;BME280_pressure;Samples;Min_cycle;Max_cycle;Signal;HPM_P1;HPM_P2
2021/12/13 00:01:13;;;;;;;25.67;9.55;;;;;;;;;;4990716;28;20034;-58
2021/12/13 00:03:51;;;;;;;20.27;9.05;;;;;;;;;;4974618;28;20038;-60
2021/12/13 00:06:22;;;;;;;18.65;8.30;;;;;;;;;;4976510;28;20033;-59
2021/12/13 00:08:53;;;;;;;22.73;7.97;;;;;;;;;;4975692;28;20030;-60
2021/12/13 00:11:22;;;;;;;20.02;7.82;;;;;;;;;;4991591;28;20042;-59
2021/12/13 00:13:49;;;;;;;24.73;8.50;;;;;;;;;;4981546;28;20132;-59
2021/12/13 00:16:21;;;;;;;25.15;8.30;;;;;;;;;;4978192;28;20192;-59
2021/12/13 00:18:53;;;;;;;19.85;7.95;;;;;;;;;;4977269;28;20088;-58
2021/12/13 00:21:27;;;;;;;21.08;7.82;;;;;;;;;;4978261;28;20040;-58
2021/12/13 00:23:57;;;;;;;25.58;8.23;;;;;;;;;;4983856;28;20030;-59
2021/12/13 00:26:30;;;;;;;17.77;7.82;;;;;;;;;;4974968;28;21038;-59
2021/12/13 00:28:57;;;;;;;26.77;8.40;;;;;;;;;;4976848;28;21704;-58
2021/12/13 00:31:24;;;;;;;19.48;7.78;;;;;;;;;;4965439;28;20030;-58
2021/12/13 00:34:10;;;;;;;19.80;7.80;;;;;;;;;;4975109;28;20034;-58
2021/12/13 00:36:47;;;;;;;22.83;8.25;;;;;;;;;;4976566;28;20026;-59
2021/12/13 00:39:27;;;;;;;27.27;8.25;;;;;;;;;;4974453;28;20043;-58
2021/12/13 00:41:53;;;;;;;20.27;8.73;;;;;;;;;;4977141;28;20081;-59
2021/12/13 00:44:26;;;;;;;29.35;10.02;;;;;;;;;;4972908;28;20045;-59
2021/12/13 00:46:53;;;;;;;24.60;9.48;;;;;;;;;;4977592;28;20038;-58
2021/12/13 00:49:24;;;;;;;29.70;10.02;;;;;;;;;;4977675;28;20043;-59
2021/12/13 00:51:56;;;;;;;33.42;10.93;;;;;;;;;;4974441;28;20064;-58
2021/12/13 00:54:26;;;;;;;31.45;10.43;;;;;;;;;;4976248;28;20041;-59
2021/12/13 00:56:58;;;;;;;29.38;10.32;;;;;;;;;;4975587;28;20390;-57
2021/12/13 00:59:27;;;;;;;26.15;10.32;;;;;;;;;;4975757;28;20034;-58
2021/12/13 01:01:56;;;;;;;38.25;10.70;;;;;;;;;;4977758;28;20033;-58
2021/12/13 01:04:22;;;;;;;28.02;11.18;;;;;;;;;;4974751;28;20070;-59
2021/12/13 01:07:06;;;;;;;35.03;10.35;;;;;;;;;;4975525;28;20410;-59
2021/12/13 01:09:44;;;;;;;29.08;10.88;;;;;;;;;;4975115;28;20030;-60
2021/12/13 01:12:18;;;;;;;34.42;11.43;;;;;;;;;;4976171;28;20815;-60
2021/12/13 01:14:52;;;;;;;33.58;10.02;;;;;;;;;;4989465;28;20514;-62
2021/12/13 01:17:26;;;;;;;34.83;11.10;;;;;;;;;;4973782;28;20065;-58
2021/12/13 01:20:00;;;;;;;39.05;11.35;;;;;;;;;;4989865;28;20107;-58
2021/12/13 01:27:36;;;;;;;40.28;9.60;;;;;;;;;;4976777;28;20038;-58
2021/12/13 01:30:06;;;;;;;27.70;10.68;;;;;;;;;;4981131;28;20101;-58
2021/12/13 01:32:36;;;;;;;29.60;11.00;;;;;;;;;;4976241;28;20030;-58
2021/12/13 01:35:04;;;;;;;29.92;10.15;;;;;;;;;;4973603;28;20407;-59
2021/12/13 01:37:31;;;;;;;31.58;10.75;;;;;;;;;;4975593;28;20053;-59
2021/12/13 01:40:02;;;;;;;30.08;9.23;;;;;;;;;;4975420;28;20032;-59
2021/12/13 01:42:29;;;;;;;26.63;8.98;;;;;;;;;;4974192;28;20957;-59
2021/12/13 01:45:01;;;;;;;28.15;9.30;;;;;;;;;;4974825;28;20034;-58
2021/12/13 01:47:30;;;;;;;30.50;8.93;;;;;;;;;;4975479;28;20030;-58
2021/12/13 01:50:07;;;;;;;30.13;9.32;;;;;;;;;;4974228;28;20397;-60
2021/12/13 01:52:37;;;;;;;25.00;8.30;;;;;;;;;;4972674;28;20036;-58
2021/12/13 01:55:30;;;;;;;22.85;8.38;;;;;;;;;;4991181;28;20076;-59
2021/12/13 01:59:03;;;;;;;29.73;9.23;;;;;;;;;;4985155;28;20061;-59
2021/12/13 02:01:09;;;;;;;25.35;8.95;;;;;;;;;;4976583;28;20042;-59
2021/12/13 02:03:47;;;;;;;24.95;9.45;;;;;;;;;;4973002;28;20786;-61
2021/12/13 02:06:29;;;;;;;24.65;9.05;;;;;;;;;;4972607;28;20465;-59
2021/12/13 02:08:56;;;;;;;27.85;9.25;;;;;;;;;;4963768;28;20109;-58
2021/12/13 02:11:22;;;;;;;25.10;9.55;;;;;;;;;;4972960;28;20037;-58
2021/12/13 02:14:05;;;;;;;30.70;9.93;;;;;;;;;;4979804;28;20053;-58
2021/12/13 02:19:22;;;;;;;33.20;11.00;;;;;;;;;;4977757;28;20034;-58
2021/12/13 02:21:56;;;;;;;34.00;11.63;;;;;;;;;;4979135;28;20041;-58
2021/12/13 02:24:24;;;;;;;38.20;11.15;;;;;;;;;;4979375;28;20038;-58
2021/12/13 02:26:50;;;;;;;36.17;11.75;;;;;;;;;;4978697;28;20780;-59
2021/12/13 02:29:21;;;;;;;37.30;11.65;;;;;;;;;;4984540;28;20026;-59
2021/12/13 02:31:48;;;;;;;30.65;11.35;;;;;;;;;;4977816;28;20105;-60
2021/12/13 02:34:17;;;;;;;38.17;12.65;;;;;;;;;;4977037;28;20034;-58
2021/12/13 02:40:21;;;;;;;56.88;13.68;;;;;;;;;;4978476;28;20256;-58
2021/12/13 02:42:49;;;;;;;36.95;13.07;;;;;;;;;;4980725;28;20053;-59
2021/12/13 02:45:42;;;;;;;41.80;12.88;;;;;;;;;;4976047;28;20341;-59
2021/12/13 02:48:33;;;;;;;54.30;14.45;;;;;;;;;;4976163;28;20109;-59
2021/12/13 02:51:01;;;;;;;42.13;13.00;;;;;;;;;;4977065;28;20061;-59
2021/12/13 02:53:42;;;;;;;50.35;14.52;;;;;;;;;;4978619;28;20037;-59
2021/12/13 02:56:08;;;;;;;46.63;13.15;;;;;;;;;;4965847;28;20501;-57
2021/12/13 02:58:38;;;;;;;59.00;13.10;;;;;;;;;;4985068;28;20062;-58
2021/12/13 03:01:09;;;;;;;53.47;14.18;;;;;;;;;;4977565;28;20061;-60
2021/12/13 03:03:37;;;;;;;43.03;14.35;;;;;;;;;;4976942;28;20030;-59
2021/12/13 03:06:04;;;;;;;46.03;12.52;;;;;;;;;;4977090;28;20109;-59
2021/12/13 03:08:38;;;;;;;52.33;11.70;;;;;;;;;;4978371;28;20034;-57
2021/12/13 03:11:10;;;;;;;54.35;12.52;;;;;;;;;;4977578;28;20033;-60
2021/12/13 03:13:35;;;;;;;51.80;11.65;;;;;;;;;;4958227;28;20465;-59
2021/12/13 03:16:14;;;;;;;52.72;11.93;;;;;;;;;;4975970;28;20104;-58
2021/12/13 03:18:48;;;;;;;40.15;12.07;;;;;;;;;;4974739;28;21468;-59
2021/12/13 03:21:43;;;;;;;50.20;11.35;;;;;;;;;;4980436;28;20076;-59
2021/12/13 03:24:30;;;;;;;39.90;11.25;;;;;;;;;;4973504;28;20185;-58
2021/12/13 03:27:15;;;;;;;36.45;11.82;;;;;;;;;;4983875;28;20037;-59
2021/12/13 03:30:00;;;;;;;45.65;11.23;;;;;;;;;;4977802;28;20042;-59
2021/12/13 03:32:33;;;;;;;50.37;12.57;;;;;;;;;;4975405;28;20053;-60
2021/12/13 03:35:04;;;;;;;40.85;12.27;;;;;;;;;;4979146;28;20113;-59
2021/12/13 03:37:30;;;;;;;47.10;12.90;;;;;;;;;;4992272;28;20137;-59
2021/12/13 03:39:59;;;;;;;46.00;11.50;;;;;;;;;;4975590;28;20140;-58
2021/12/13 03:42:36;;;;;;;45.22;11.52;;;;;;;;;;4981284;28;20049;-60
2021/12/13 03:45:11;;;;;;;33.63;11.60;;;;;;;;;;4976727;28;20037;-59
2021/12/13 03:47:40;;;;;;;35.92;11.32;;;;;;;;;;4974084;28;21246;-59
2021/12/13 03:50:11;;;;;;;38.95;12.02;;;;;;;;;;4976954;28;20057;-60
2021/12/13 03:52:42;;;;;;;33.80;11.50;;;;;;;;;;4981995;28;20049;-58
2021/12/13 03:55:15;;;;;;;42.38;12.40;;;;;;;;;;4983770;28;20038;-58
2021/12/13 03:57:45;;;;;;;36.42;10.75;;;;;;;;;;4977392;28;20044;-58
2021/12/13 04:00:13;;;;;;;40.92;11.48;;;;;;;;;;4980695;28;20038;-57
2021/12/13 04:02:40;;;;;;;48.95;12.30;;;;;;;;;;4977548;28;20045;-59
2021/12/13 04:05:08;;;;;;;42.40;10.70;;;;;;;;;;4977217;28;20044;-60
2021/12/13 04:07:36;;;;;;;44.28;11.95;;;;;;;;;;4974809;28;20374;-59
2021/12/13 04:10:06;;;;;;;28.98;11.45;;;;;;;;;;4977563;28;20042;-59
2021/12/13 04:12:40;;;;;;;25.67;10.50;;;;;;;;;;4965341;28;20030;-58
2021/12/13 04:15:16;;;;;;;38.30;12.20;;;;;;;;;;4973339;28;20429;-59
2021/12/13 04:17:57;;;;;;;25.80;11.07;;;;;;;;;;4977371;28;20033;-59
2021/12/13 04:20:29;;;;;;;26.45;9.63;;;;;;;;;;4976342;28;20062;-60
2021/12/13 04:22:59;;;;;;;31.38;11.10;;;;;;;;;;4972372;28;20639;-59
2021/12/13 04:25:28;;;;;;;39.65;12.15;;;;;;;;;;4976462;28;20037;-59
2021/12/13 04:27:56;;;;;;;25.23;8.70;;;;;;;;;;4973841;28;20191;-59
2021/12/13 04:30:26;;;;;;;24.20;7.88;;;;;;;;;;4982561;28;20113;-59
2021/12/13 04:32:58;;;;;;;27.17;7.78;;;;;;;;;;4976915;28;20041;-59
2021/12/13 04:35:24;;;;;;;23.42;7.93;;;;;;;;;;4974433;28;20038;-59
2021/12/13 04:37:51;;;;;;;22.65;7.65;;;;;;;;;;4976590;28;20027;-59
2021/12/13 04:40:22;;;;;;;22.35;7.40;;;;;;;;;;4977386;28;20034;-59
2021/12/13 04:42:56;;;;;;;17.30;8.07;;;;;;;;;;4975963;28;20890;-60
2021/12/13 04:45:24;;;;;;;20.45;7.40;;;;;;;;;;4981696;28;20743;-59
2021/12/13 04:47:55;;;;;;;22.85;7.22;;;;;;;;;;4973696;28;20213;-58
2021/12/13 04:50:25;;;;;;;16.60;6.82;;;;;;;;;;4976354;28;20029;-58
2021/12/13 04:52:55;;;;;;;22.27;7.43;;;;;;;;;;4974997;28;20036;-59
2021/12/13 04:55:23;;;;;;;27.15;7.38;;;;;;;;;;4975453;28;20089;-58
2021/12/13 04:57:52;;;;;;;19.33;6.80;;;;;;;;;;4976116;28;20038;-58
2021/12/13 05:00:22;;;;;;;19.38;8.32;;;;;;;;;;4974843;28;20053;-58
2021/12/13 05:02:50;;;;;;;23.58;9.35;;;;;;;;;;4975583;28;20041;-58
2021/12/13 05:05:16;;;;;;;25.83;8.07;;;;;;;;;;4980297;28;20231;-60
2021/12/13 05:07:43;;;;;;;18.17;7.13;;;;;;;;;;4973516;28;20029;-58
2021/12/13 05:10:10;;;;;;;12.18;6.65;;;;;;;;;;4976267;28;20072;-59
2021/12/13 05:12:36;;;;;;;20.50;6.65;;;;;;;;;;4973314;28;20041;-59
2021/12/13 05:15:04;;;;;;;15.15;5.82;;;;;;;;;;4975493;28;20077;-60
2021/12/13 05:17:39;;;;;;;21.63;6.65;;;;;;;;;;4973072;28;20219;-58
2021/12/13 05:20:11;;;;;;;15.27;5.32;;;;;;;;;;4973980;28;20048;-59
2021/12/13 05:22:46;;;;;;;13.45;4.93;;;;;;;;;;4974568;28;20092;-58
2021/12/13 05:25:18;;;;;;;13.85;6.55;;;;;;;;;;4976028;28;20165;-60
2021/12/13 05:27:46;;;;;;;16.48;5.88;;;;;;;;;;4972186;28;20141;-60
2021/12/13 05:30:24;;;;;;;14.05;5.50;;;;;;;;;;4982775;28;20045;-60
2021/12/13 05:32:57;;;;;;;8.30;4.80;;;;;;;;;;4974645;28;20026;-59
2021/12/13 05:35:45;;;;;;;8.15;4.03;;;;;;;;;;4979936;28;20037;-59
2021/12/13 05:38:21;;;;;;;9.35;4.45;;;;;;;;;;4974801;28;20061;-59
2021/12/13 05:40:46;;;;;;;16.73;5.25;;;;;;;;;;4989915;28;20037;-58
2021/12/13 05:43:23;;;;;;;15.20;5.07;;;;;;;;;;4974490;28;20055;-59
2021/12/13 05:45:56;;;;;;;7.10;4.40;;;;;;;;;;4974804;28;20062;-60
2021/12/13 05:48:34;;;;;;;9.05;4.97;;;;;;;;;;4974026;28;20034;-59
2021/12/13 05:51:04;;;;;;;11.07;5.78;;;;;;;;;;4975871;28;20037;-59
2021/12/13 05:53:38;;;;;;;14.80;5.97;;;;;;;;;;4973238;28;20034;-59
2021/12/13 05:56:10;;;;;;;14.10;5.72;;;;;;;;;;4976980;28;20038;-58
2021/12/13 05:58:44;;;;;;;13.68;5.95;;;;;;;;;;4981091;28;20058;-58
2021/12/13 06:01:22;;;;;;;10.55;5.93;;;;;;;;;;4991866;28;20050;-60
2021/12/13 06:04:08;;;;;;;17.20;6.57;;;;;;;;;;4975253;28;20030;-58
2021/12/13 06:06:57;;;;;;;14.23;5.03;;;;;;;;;;4942423;28;20049;-57
2021/12/13 06:09:40;;;;;;;11.15;5.78;;;;;;;;;;4981100;28;20030;-58
2021/12/13 06:12:08;;;;;;;12.73;5.72;;;;;;;;;;4976176;28;20034;-58
2021/12/13 06:14:36;;;;;;;15.48;6.22;;;;;;;;;;4975841;28;20057;-58
2021/12/13 06:17:13;;;;;;;19.38;6.82;;;;;;;;;;4973566;28;20034;-57
2021/12/13 06:19:50;;;;;;;21.73;6.65;;;;;;;;;;4977137;28;20129;-60
2021/12/13 06:22:20;;;;;;;23.63;7.32;;;;;;;;;;4973040;28;20844;-59
2021/12/13 06:25:04;;;;;;;17.63;7.00;;;;;;;;;;4974862;28;20069;-59
2021/12/13 06:27:39;;;;;;;16.00;6.53;;;;;;;;;;4974818;28;20546;-57
2021/12/13 06:30:17;;;;;;;15.10;6.72;;;;;;;;;;4976542;28;20034;-60
2021/12/13 06:32:47;;;;;;;16.77;7.45;;;;;;;;;;4960248;28;20139;-58
2021/12/13 06:35:27;;;;;;;19.17;7.18;;;;;;;;;;4976407;28;20490;-59
2021/12/13 06:38:00;;;;;;;18.05;7.05;;;;;;;;;;4991452;28;20085;-59
2021/12/13 06:40:29;;;;;;;17.17;7.07;;;;;;;;;;4988505;28;20045;-60
2021/12/13 06:42:56;;;;;;;18.23;7.70;;;;;;;;;;4960463;28;20438;-59
2021/12/13 06:45:27;;;;;;;27.02;7.38;;;;;;;;;;4977381;28;20104;-58
2021/12/13 06:47:57;;;;;;;21.15;6.53;;;;;;;;;;4989849;28;21861;-58
2021/12/13 06:50:30;;;;;;;24.80;7.13;;;;;;;;;;4977367;28;20035;-57
2021/12/13 06:53:13;;;;;;;18.38;7.03;;;;;;;;;;4971939;28;20046;-59
2021/12/13 06:55:41;;;;;;;;;;;;;;;;;;4977556;28;20617;-59
2021/12/13 06:58:21;;;;;;;20.80;7.20;;;;;;;;;;4976342;28;20563;-58
2021/12/13 07:00:55;;;;;;;20.65;7.35;;;;;;;;;;4978732;28;20045;-58
2021/12/13 07:03:32;;;;;;;17.67;7.22;;;;;;;;;;4979997;28;20030;-59
2021/12/13 07:06:01;;;;;;;22.90;9.90;;;;;;;;;;4976960;28;20026;-61
2021/12/13 07:08:29;;;;;;;20.48;7.63;;;;;;;;;;4979497;28;20071;-60
2021/12/13 07:10:55;;;;;;;18.83;6.97;;;;;;;;;;4980093;28;20104;-59
2021/12/13 07:13:22;;;;;;;26.70;7.57;;;;;;;;;;4980025;28;20113;-59
2021/12/13 07:16:07;;;;;;;18.00;6.55;;;;;;;;;;4984954;28;20041;-59
2021/12/13 07:18:48;;;;;;;27.42;7.35;;;;;;;;;;4977735;28;20034;-59
2021/12/13 07:21:19;;;;;;;21.67;7.53;;;;;;;;;;4986481;28;20038;-58
2021/12/13 07:24:13;;;;;;;21.80;6.28;;;;;;;;;;4979774;28;20030;-59
2021/12/13 07:26:54;;;;;;;18.90;6.13;;;;;;;;;;4971504;28;20026;-59
2021/12/13 07:29:23;;;;;;;;;;;;;;;;;;4980478;28;20028;-59
2021/12/13 07:32:03;;;;;;;18.27;7.70;;;;;;;;;;4995755;28;19913;-58
2021/12/13 07:34:45;;;;;;;21.60;7.68;;;;;;;;;;4980205;28;20485;-58
2021/12/13 07:37:14;;;;;;;19.02;7.95;;;;;;;;;;4995046;28;20125;-58
2021/12/13 07:39:44;;;;;;;17.85;7.10;;;;;;;;;;4982897;28;20069;-58
2021/12/13 07:42:13;;;;;;;19.67;7.85;;;;;;;;;;4979766;28;20450;-58
2021/12/13 07:44:39;;;;;;;16.92;7.65;;;;;;;;;;4979089;28;20088;-58
2021/12/13 07:47:07;;;;;;;28.30;7.80;;;;;;;;;;4978833;28;20725;-58
2021/12/13 07:49:37;;;;;;;24.05;9.15;;;;;;;;;;4993367;28;20041;-59
2021/12/13 07:52:04;;;;;;;21.25;8.85;;;;;;;;;;4965384;28;20038;-58
2021/12/13 07:54:43;;;;;;;21.88;8.30;;;;;;;;;;4979709;28;20033;-58
2021/12/13 07:57:17;;;;;;;25.80;9.77;;;;;;;;;;4980143;28;20033;-59
2021/12/13 07:59:45;;;;;;;22.73;9.65;;;;;;;;;;4978052;28;21516;-59
2021/12/13 08:02:19;;;;;;;27.17;9.20;;;;;;;;;;4977382;28;20134;-59
2021/12/13 08:04:50;;;;;;;24.80;9.93;;;;;;;;;;4980025;28;20735;-59
2021/12/13 08:07:22;;;;;;;25.25;10.10;;;;;;;;;;4979484;28;20561;-58
2021/12/13 08:09:56;;;;;;;25.13;9.82;;;;;;;;;;4979502;28;20064;-58
2021/12/13 08:12:44;;;;;;;22.92;9.57;;;;;;;;;;4980638;28;21900;-58
2021/12/13 08:15:20;;;;;;;23.10;9.35;;;;;;;;;;4980127;28;20108;-58
2021/12/13 08:17:49;;;;;;;22.67;8.75;;;;;;;;;;4984304;28;20033;-58
2021/12/13 08:20:21;;;;;;;24.70;9.38;;;;;;;;;;4978414;28;20080;-60
2021/12/13 08:22:47;;;;;;;23.80;9.27;;;;;;;;;;4978764;28;20075;-58
2021/12/13 08:25:26;;;;;;;25.92;10.43;;;;;;;;;;4981897;28;20038;-60
2021/12/13 08:27:58;;;;;;;25.33;9.98;;;;;;;;;;4978044;28;20836;-58
2021/12/13 08:30:28;;;;;;;24.00;10.07;;;;;;;;;;4975852;28;20030;-59
2021/12/13 08:33:06;;;;;;;26.40;11.75;;;;;;;;;;4978521;28;20026;-59
2021/12/13 08:35:51;;;;;;;24.83;10.27;;;;;;;;;;4976391;28;20041;-58
2021/12/13 08:38:35;;;;;;;24.90;10.52;;;;;;;;;;4980151;28;20705;-58
2021/12/13 08:41:07;;;;;;;24.73;10.68;;;;;;;;;;4977471;28;20033;-58
2021/12/13 08:43:34;;;;;;;26.73;9.95;;;;;;;;;;4993571;28;21120;-58
2021/12/13 08:46:03;;;;;;;24.52;11.32;;;;;;;;;;4979285;28;20034;-58
2021/12/13 08:48:30;;;;;;;28.70;11.25;;;;;;;;;;4966135;28;20034;-59
2021/12/13 08:50:57;;;;;;;20.88;10.55;;;;;;;;;;4977234;28;20041;-59
2021/12/13 08:53:25;;;;;;;25.58;12.23;;;;;;;;;;4983575;28;20832;-59
2021/12/13 08:55:52;;;;;;;28.65;12.15;;;;;;;;;;4976613;28;20046;-60
2021/12/13 08:58:21;;;;;;;28.38;11.52;;;;;;;;;;4979177;28;20030;-60
2021/12/13 09:00:53;;;;;;;25.55;10.55;;;;;;;;;;4976769;28;22092;-60
2021/12/13 09:03:22;;;;;;;22.55;11.10;;;;;;;;;;4977315;28;20108;-59
2021/12/13 09:06:03;;;;;;;26.60;10.80;;;;;;;;;;4979084;28;20044;-60
2021/12/13 09:08:29;;;;;;;23.55;10.65;;;;;;;;;;4978158;28;20123;-59
2021/12/13 09:11:01;;;;;;;23.77;11.07;;;;;;;;;;4979246;28;20124;-59
2021/12/13 09:13:57;;;;;;;21.42;10.80;;;;;;;;;;4978415;28;20029;-59
2021/12/13 09:16:31;;;;;;;23.35;11.55;;;;;;;;;;4975488;28;20082;-59
2021/12/13 09:19:26;;;;;;;22.88;11.75;;;;;;;;;;4977279;28;20026;-58
2021/12/13 09:21:56;;;;;;;22.33;10.60;;;;;;;;;;4964057;28;20588;-58
2021/12/13 09:24:27;;;;;;;26.35;10.82;;;;;;;;;;4976896;28;20030;-59
2021/12/13 09:27:06;;;;;;;24.10;10.45;;;;;;;;;;4977022;28;20034;-59
2021/12/13 09:29:45;;;;;;;21.65;10.32;;;;;;;;;;4977524;28;20030;-59
2021/12/13 09:32:15;;;;;;;20.63;10.30;;;;;;;;;;4976536;28;20049;-60
2021/12/13 09:34:48;;;;;;;21.15;10.05;;;;;;;;;;4978431;28;20038;-59
2021/12/13 09:37:17;;;;;;;20.25;9.80;;;;;;;;;;4992935;28;20061;-59
2021/12/13 09:39:56;;;;;;;31.13;10.98;;;;;;;;;;4982810;28;20041;-59
2021/12/13 09:42:26;;;;;;;21.98;11.32;;;;;;;;;;4977569;28;20046;-61
2021/12/13 09:45:07;;;;;;;24.27;11.30;;;;;;;;;;4964864;28;20042;-59
2021/12/13 09:47:37;;;;;;;20.52;10.32;;;;;;;;;;4976711;28;20058;-60
2021/12/13 09:50:14;;;;;;;26.08;10.15;;;;;;;;;;4979051;28;20030;-58
2021/12/13 09:52:42;;;;;;;25.90;11.40;;;;;;;;;;4976894;28;20096;-58
2021/12/13 09:55:16;;;;;;;22.35;10.65;;;;;;;;;;4975958;28;20041;-59
2021/12/13 09:57:56;;;;;;;21.27;9.95;;;;;;;;;;4977640;28;20038;-58
2021/12/13 10:00:21;;;;;;;21.48;10.00;;;;;;;;;;4990500;28;20034;-59
2021/12/13 10:02:52;;;;;;;26.00;10.40;;;;;;;;;;4977967;28;20037;-59
2021/12/13 10:05:20;;;;;;;29.77;10.77;;;;;;;;;;4979350;28;20035;-60
2021/12/13 10:07:53;;;;;;;17.95;10.80;;;;;;;;;;4984368;28;20026;-58
2021/12/13 10:10:25;;;;;;;22.80;11.02;;;;;;;;;;4992635;28;20041;-59
2021/12/13 10:12:55;;;;;;;21.45;10.73;;;;;;;;;;4992222;28;20088;-59
2021/12/13 10:15:28;;;;;;;24.20;11.52;;;;;;;;;;4974156;28;20025;-59
2021/12/13 10:18:02;;;;;;;20.70;9.77;;;;;;;;;;4966182;28;20097;-59
2021/12/13 10:20:30;;;;;;;19.75;10.68;;;;;;;;;;4978653;28;20038;-59
2021/12/13 10:23:02;;;;;;;22.35;10.38;;;;;;;;;;4977198;28;20148;-59
2021/12/13 10:25:30;;;;;;;27.33;11.68;;;;;;;;;;4976843;28;20029;-59
2021/12/13 10:28:03;;;;;;;20.58;9.75;;;;;;;;;;4976188;28;20030;-59
2021/12/13 10:30:32;;;;;;;22.50;10.85;;;;;;;;;;4976699;28;20581;-60
2021/12/13 10:33:03;;;;;;;21.20;9.68;;;;;;;;;;4978659;28;20100;-59
2021/12/13 10:35:31;;;;;;;19.27;9.57;;;;;;;;;;4988517;28;20030;-60
2021/12/13 10:37:59;;;;;;;22.10;10.60;;;;;;;;;;4976184;28;20097;-60
2021/12/13 10:40:29;;;;;;;23.70;11.13;;;;;;;;;;4981361;28;20038;-59
2021/12/13 10:43:00;;;;;;;20.58;11.55;;;;;;;;;;4980038;28;20054;-60
2021/12/13 10:45:28;;;;;;;28.25;11.80;;;;;;;;;;4979725;28;20029;-60
2021/12/13 10:48:00;;;;;;;20.48;11.60;;;;;;;;;;4980867;28;20038;-60
2021/12/13 10:50:35;;;;;;;20.58;11.07;;;;;;;;;;4980193;28;20030;-59
2021/12/13 10:53:01;;;;;;;18.55;10.05;;;;;;;;;;4979035;28;20493;-59
2021/12/13 10:55:29;;;;;;;24.70;12.05;;;;;;;;;;4976955;28;20038;-61
2021/12/13 10:57:55;;;;;;;22.85;10.77;;;;;;;;;;4979660;28;20022;-59
2021/12/13 11:00:20;;;;;;;17.52;9.77;;;;;;;;;;4980704;28;20026;-59
2021/12/13 11:02:53;;;;;;;20.88;11.27;;;;;;;;;;4976824;28;20041;-59
2021/12/13 11:05:23;;;;;;;22.90;11.13;;;;;;;;;;4978139;28;20026;-58
2021/12/13 11:07:52;;;;;;;22.17;10.25;;;;;;;;;;4979290;28;20034;-59
2021/12/13 11:10:19;;;;;;;21.42;10.80;;;;;;;;;;4968366;28;20022;-61
2021/12/13 11:12:52;;;;;;;25.92;11.57;;;;;;;;;;4978913;28;20057;-60
2021/12/13 11:15:22;;;;;;;24.38;11.25;;;;;;;;;;4977767;28;20034;-59
2021/12/13 11:17:50;;;;;;;25.27;11.57;;;;;;;;;;4979933;28;20034;-59
2021/12/13 11:20:27;;;;;;;21.80;10.63;;;;;;;;;;4979979;28;20037;-58
2021/12/13 11:22:52;;;;;;;20.52;10.68;;;;;;;;;;4980092;28;20034;-59
2021/12/13 11:25:21;;;;;;;20.17;11.13;;;;;;;;;;4980526;28;20148;-59
2021/12/13 11:27:50;;;;;;;20.52;9.70;;;;;;;;;;4977259;28;20023;-59
2021/12/13 11:30:20;;;;;;;22.60;9.90;;;;;;;;;;4974288;28;20030;-59
2021/12/13 11:32:46;;;;;;;21.88;9.95;;;;;;;;;;4979063;28;20072;-59
2021/12/13 11:35:14;;;;;;;22.13;10.35;;;;;;;;;;4981296;28;20030;-59
2021/12/13 11:37:56;;;;;;;19.48;9.38;;;;;;;;;;4979444;28;20042;-59
2021/12/13 11:40:41;;;;;;;20.00;8.40;;;;;;;;;;4982271;28;20433;-60
2021/12/13 11:43:24;;;;;;;20.98;9.70;;;;;;;;;;4993728;28;20045;-60
2021/12/13 11:46:14;;;;;;;23.33;10.05;;;;;;;;;;4977420;28;20038;-59
2021/12/13 11:49:02;;;;;;;20.30;10.20;;;;;;;;;;4979559;28;20409;-60
2021/12/13 11:51:28;;;;;;;21.25;9.43;;;;;;;;;;4978526;28;20049;-60
2021/12/13 11:54:13;;;;;;;18.60;9.43;;;;;;;;;;4977814;28;20096;-60
2021/12/13 11:56:43;;;;;;;20.92;9.65;;;;;;;;;;4978461;28;20050;-60
2021/12/13 11:59:27;;;;;;;19.10;9.40;;;;;;;;;;4977492;28;20045;-59
2021/12/13 12:02:01;;;;;;;17.08;9.25;;;;;;;;;;4984792;28;20041;-59
2021/12/13 12:04:45;;;;;;;21.67;10.13;;;;;;;;;;4979352;28;21011;-59
2021/12/13 12:07:14;;;;;;;16.20;8.40;;;;;;;;;;4977833;28;20042;-59
2021/12/13 12:10:08;;;;;;;17.85;9.15;;;;;;;;;;4965174;28;20052;-60
2021/12/13 12:12:36;;;;;;;17.27;9.55;;;;;;;;;;4977958;28;20042;-59
2021/12/13 12:15:03;;;;;;;18.58;9.10;;;;;;;;;;4977198;28;20085;-59
2021/12/13 12:17:32;;;;;;;19.35;8.73;;;;;;;;;;4975927;28;20035;-60
2021/12/13 12:20:04;;;;;;;22.88;10.20;;;;;;;;;;4976817;28;20041;-59
2021/12/13 12:22:37;;;;;;;19.23;9.48;;;;;;;;;;4960876;28;20041;-60
2021/12/13 12:25:06;;;;;;;22.45;10.35;;;;;;;;;;4976924;28;22056;-60
2021/12/13 12:27:37;;;;;;;18.13;10.10;;;;;;;;;;4977907;28;20045;-60
2021/12/13 12:30:09;;;;;;;18.63;9.55;;;;;;;;;;4975718;28;20034;-58
2021/12/13 12:32:39;;;;;;;27.25;9.40;;;;;;;;;;4990405;28;20133;-59
2021/12/13 12:35:11;;;;;;;21.02;9.57;;;;;;;;;;4992560;28;20035;-59
2021/12/13 12:38:00;;;;;;;22.98;9.43;;;;;;;;;;4990619;28;20486;-58
2021/12/13 12:40:33;;;;;;;21.02;8.57;;;;;;;;;;4976660;28;20482;-61
2021/12/13 12:43:00;;;;;;;17.85;8.38;;;;;;;;;;4974209;28;20034;-61
2021/12/13 12:45:35;;;;;;;23.08;9.90;;;;;;;;;;4976690;28;20034;-59
2021/12/13 12:48:10;;;;;;;23.33;9.20;;;;;;;;;;4974029;28;20477;-59
2021/12/13 12:50:53;;;;;;;21.98;9.70;;;;;;;;;;4968233;28;20031;-59
2021/12/13 12:53:31;;;;;;;17.70;8.93;;;;;;;;;;4976138;28;20026;-58
2021/12/13 12:56:04;;;;;;;22.10;9.35;;;;;;;;;;4975366;28;20038;-59
2021/12/13 12:58:38;;;;;;;21.85;9.15;;;;;;;;;;4977526;28;20125;-59
2021/12/13 13:01:21;;;;;;;20.77;10.05;;;;;;;;;;4977248;28;20037;-59
2021/12/13 13:03:47;;;;;;;17.92;8.48;;;;;;;;;;4978895;28;20061;-59
2021/12/13 13:06:16;;;;;;;18.95;9.00;;;;;;;;;;4977331;28;20026;-58
2021/12/13 13:08:46;;;;;;;20.25;9.35;;;;;;;;;;4976064;28;20022;-58
2021/12/13 13:11:30;;;;;;;18.73;9.70;;;;;;;;;;4981759;28;20034;-59
2021/12/13 13:14:09;;;;;;;20.58;9.55;;;;;;;;;;4975984;28;20383;-58
2021/12/13 13:16:42;;;;;;;20.08;9.77;;;;;;;;;;4980325;28;20038;-58
2021/12/13 13:19:20;;;;;;;15.02;9.13;;;;;;;;;;4977714;28;20490;-60
2021/12/13 13:21:48;;;;;;;19.10;9.50;;;;;;;;;;4983188;28;20037;-59
2021/12/13 13:24:19;;;;;;;24.10;9.82;;;;;;;;;;4977114;28;20522;-60
2021/12/13 13:26:48;;;;;;;19.98;9.70;;;;;;;;;;4974816;28;20125;-58
2021/12/13 13:29:20;;;;;;;17.25;8.82;;;;;;;;;;4976712;28;20197;-60
2021/12/13 13:31:53;;;;;;;18.92;9.45;;;;;;;;;;4977876;28;20049;-59
2021/12/13 13:34:32;;;;;;;19.80;9.43;;;;;;;;;;4977522;28;20033;-58
2021/12/13 13:37:00;;;;;;;17.52;8.20;;;;;;;;;;4972990;28;20498;-59
2021/12/13 13:39:34;;;;;;;22.35;9.05;;;;;;;;;;4976716;28;20037;-59
2021/12/13 13:42:06;;;;;;;23.35;7.85;;;;;;;;;;4976368;28;20050;-59
2021/12/13 13:44:56;;;;;;;18.30;9.18;;;;;;;;;;4977230;28;20030;-59
2021/12/13 13:47:39;;;;;;;18.92;9.57;;;;;;;;;;4977566;28;20069;-63
2021/12/13 13:50:26;;;;;;;15.48;8.48;;;;;;;;;;4977890;28;20106;-58
2021/12/13 13:52:53;;;;;;;14.50;7.60;;;;;;;;;;4979395;28;20440;-60
2021/12/13 13:55:25;;;;;;;18.10;7.20;;;;;;;;;;4978149;28;20179;-59
2021/12/13 13:57:55;;;;;;;22.65;7.93;;;;;;;;;;4963167;28;20034;-60
2021/12/13 14:00:24;;;;;;;14.23;7.43;;;;;;;;;;4976681;28;20042;-59
2021/12/13 14:02:52;;;;;;;15.73;8.25;;;;;;;;;;4976007;28;20045;-59
2021/12/13 14:05:17;;;;;;;19.23;8.55;;;;;;;;;;4956549;28;20042;-59
2021/12/13 14:07:43;;;;;;;21.75;8.75;;;;;;;;;;4976219;28;20038;-59
2021/12/13 14:10:16;;;;;;;19.23;7.85;;;;;;;;;;4995325;28;20486;-59
2021/12/13 14:12:50;;;;;;;22.38;10.02;;;;;;;;;;4980027;28;20027;-59
2021/12/13 14:15:19;;;;;;;18.80;8.93;;;;;;;;;;4979849;28;20045;-58
2021/12/13 14:17:48;;;;;;;21.60;9.05;;;;;;;;;;4981355;28;20053;-58
2021/12/13 14:20:19;;;;;;;31.95;10.38;;;;;;;;;;4996002;28;20709;-59
2021/12/13 14:22:48;;;;;;;20.25;9.25;;;;;;;;;;4982419;28;20093;-59
2021/12/13 14:25:24;;;;;;;26.33;10.13;;;;;;;;;;4978073;28;20030;-59
2021/12/13 14:27:51;;;;;;;31.55;11.00;;;;;;;;;;4987821;28;20051;-59
2021/12/13 14:30:20;;;;;;;23.80;10.45;;;;;;;;;;4979991;28;20022;-58
2021/12/13 14:32:46;;;;;;;25.50;10.85;;;;;;;;;;4981895;28;20175;-59
2021/12/13 14:35:37;;;;;;;27.83;10.75;;;;;;;;;;4979722;28;20042;-59
2021/12/13 14:38:12;;;;;;;19.95;10.68;;;;;;;;;;4980379;28;20050;-59
2021/12/13 14:40:42;;;;;;;30.88;11.77;;;;;;;;;;4980097;28;20047;-60
2021/12/13 14:43:24;;;;;;;28.90;10.75;;;;;;;;;;4979845;28;20769;-59
2021/12/13 14:45:53;;;;;;;28.10;10.13;;;;;;;;;;4972907;28;20228;-60
2021/12/13 14:48:24;;;;;;;30.20;11.23;;;;;;;;;;4980505;28;20031;-58
2021/12/13 14:50:54;;;;;;;27.80;11.60;;;;;;;;;;4980197;28;20100;-59
2021/12/13 14:53:26;;;;;;;26.90;11.45;;;;;;;;;;4978203;28;20816;-61
2021/12/13 14:56:00;;;;;;;33.92;11.75;;;;;;;;;;4981733;28;20109;-59
2021/12/13 14:58:38;;;;;;;32.60;12.10;;;;;;;;;;4978832;28;22008;-59
2021/12/13 15:01:09;;;;;;;33.60;13.93;;;;;;;;;;4977756;28;20048;-59
2021/12/13 15:03:41;;;;;;;29.60;11.52;;;;;;;;;;4993168;28;20034;-60
2021/12/13 15:06:10;;;;;;;29.35;11.18;;;;;;;;;;4969525;28;20070;-59
2021/12/13 15:08:39;;;;;;;25.27;10.65;;;;;;;;;;4980252;28;20446;-59
2021/12/13 15:11:09;;;;;;;27.33;11.82;;;;;;;;;;4980272;28;20034;-60